Time;durP1;ratioP1;P1;durP2;ratioP2;P2;SDS_P1;SDS_P2;PMS_P1;PMS_P2;Temp;Humidity;BMP_temperature;BMP_pressure;BME280_temperature;BME280_humidity;BME280_pressure;Samples;Min_cycle;Max_cycle;Signal;HPM_P1;HPM_P2
2023/10/13 00:01:13;;;;;;;2.30;2.10;;;;;;;;;;5077817;28;20230;-89
2023/10/13 00:03:41;;;;;;;2.08;1.50;;;;;;;;;;5083017;28;20196;-90
2023/10/13 00:06:09;;;;;;;1.33;1.23;;;;;;;;;;5078084;28;20201;-89
2023/10/13 00:08:38;;;;;;;1.42;1.38;;;;;;;;;;5078117;28;20193;-89
2023/10/13 00:11:09;;;;;;;1.92;1.02;;;;;;;;;;5077980;28;20232;-89
2023/10/13 00:13:42;;;;;;;1.25;1.17;;;;;;;;;;5078413;28;20228;-89
2023/10/13 00:16:17;;;;;;;1.23;1.13;;;;;;;;;;5077421;28;20303;-89
2023/10/13 00:18:44;;;;;;;1.27;1.20;;;;;;;;;;5077354;28;20265;-90
2023/10/13 00:21:19;;;;;;;2.00;1.50;;;;;;;;;;5076598;28;20225;-89
2023/10/13 00:23:54;;;;;;;1.50;1.42;;;;;;;;;;5077720;28;20227;-90
2023/10/13 00:26:26;;;;;;;1.95;1.40;;;;;;;;;;5077729;28;20325;-91
2023/10/13 00:29:08;;;;;;;1.48;1.38;;;;;;;;;;5077731;28;20254;-90
2023/10/13 00:31:38;;;;;;;2.83;1.65;;;;;;;;;;5077707;28;20224;-90
2023/10/13 00:34:11;;;;;;;1.70;1.60;;;;;;;;;;5077244;28;20631;-90
2023/10/13 00:36:47;;;;;;;1.60;1.50;;;;;;;;;;5077832;28;20224;-89
2023/10/13 00:39:16;;;;;;;1.60;1.50;;;;;;;;;;5076909;28;20616;-89
2023/10/13 00:41:52;;;;;;;1.80;1.70;;;;;;;;;;5077281;28;20221;-90
2023/10/13 00:44:26;;;;;;;2.38;1.73;;;;;;;;;;5077769;28;20287;-89
2023/10/13 00:46:56;;;;;;;1.70;1.60;;;;;;;;;;5077886;28;20250;-89
2023/10/13 00:49:24;;;;;;;2.20;1.95;;;;;;;;;;5082527;28;20219;-90
2023/10/13 00:51:51;;;;;;;1.65;1.55;;;;;;;;;;5070827;28;20731;-90
2023/10/13 00:54:26;;;;;;;1.48;1.38;;;;;;;;;;5057239;28;20267;-89
2023/10/13 00:56:57;;;;;;;2.00;1.90;;;;;;;;;;5056790;28;20201;-90
2023/10/13 00:59:26;;;;;;;1.77;1.67;;;;;;;;;;5057168;28;20649;-90
2023/10/13 01:01:55;;;;;;;1.85;1.73;;;;;;;;;;5057343;28;20230;-89
2023/10/13 01:04:27;;;;;;;1.75;1.65;;;;;;;;;;5057542;28;20275;-90
2023/10/13 01:06:54;;;;;;;1.98;1.65;;;;;;;;;;5056894;28;20633;-90
2023/10/13 01:09:24;;;;;;;2.65;2.45;;;;;;;;;;5057476;28;20312;-89
2023/10/13 01:11:52;;;;;;;3.08;1.80;;;;;;;;;;5055882;28;20229;-90
2023/10/13 01:14:20;;;;;;;1.88;1.75;;;;;;;;;;5062289;28;20221;-90
2023/10/13 01:16:52;;;;;;;2.30;2.08;;;;;;;;;;5056341;28;20224;-89
2023/10/13 01:19:24;;;;;;;1.85;1.75;;;;;;;;;;5056745;28;20201;-89
2023/10/13 01:21:56;;;;;;;2.50;2.30;;;;;;;;;;5062856;28;20208;-89
2023/10/13 01:24:31;;;;;;;2.25;2.15;;;;;;;;;;5056589;28;20216;-90
2023/10/13 01:27:07;;;;;;;2.08;1.65;;;;;;;;;;5056425;28;20224;-90
2023/10/13 01:29:35;;;;;;;1.65;1.55;;;;;;;;;;5056705;28;20213;-90
2023/10/13 01:32:01;;;;;;;2.13;1.67;;;;;;;;;;5056293;28;20225;-90
2023/10/13 01:34:33;;;;;;;1.52;1.42;;;;;;;;;;5056701;28;20619;-89
2023/10/13 01:37:05;;;;;;;2.58;2.03;;;;;;;;;;5056511;28;20209;-91
2023/10/13 01:39:34;;;;;;;1.88;1.50;;;;;;;;;;5056342;28;20197;-90
2023/10/13 01:42:01;;;;;;;2.30;2.10;;;;;;;;;;5056169;28;20284;-90
2023/10/13 01:44:30;;;;;;;2.53;2.28;;;;;;;;;;5057539;28;20198;-90
2023/10/13 01:46:59;;;;;;;1.60;1.50;;;;;;;;;;5056619;28;20232;-89
2023/10/13 01:49:27;;;;;;;1.98;1.88;;;;;;;;;;5055867;28;20205;-90
2023/10/13 01:51:53;;;;;;;2.53;2.10;;;;;;;;;;5061523;28;20719;-90
2023/10/13 01:54:21;;;;;;;2.67;2.47;;;;;;;;;;5056152;28;20206;-90
2023/10/13 01:56:49;;;;;;;2.50;2.30;;;;;;;;;;5056006;28;20238;-90
2023/10/13 01:59:18;;;;;;;2.92;2.72;;;;;;;;;;5055635;28;20221;-89
2023/10/13 02:01:44;;;;;;;2.75;2.55;;;;;;;;;;5056212;28;20208;-90
2023/10/13 02:04:12;;;;;;;4.22;3.28;;;;;;;;;;5055733;28;20706;-91
2023/10/13 02:06:38;;;;;;;2.92;2.65;;;;;;;;;;5055859;28;20209;-89
2023/10/13 02:09:12;;;;;;;2.63;2.40;;;;;;;;;;5056133;28;20664;-91
2023/10/13 02:11:40;;;;;;;2.78;2.35;;;;;;;;;;5055790;28;20209;-89
2023/10/13 02:14:11;;;;;;;3.08;2.75;;;;;;;;;;5055350;28;20204;-90
2023/10/13 02:16:38;;;;;;;2.85;2.65;;;;;;;;;;5056010;28;20240;-90
2023/10/13 02:19:05;;;;;;;2.50;2.30;;;;;;;;;;5055498;28;20205;-89
2023/10/13 02:21:38;;;;;;;4.65;2.80;;;;;;;;;;5060976;28;20668;-90
2023/10/13 02:24:13;;;;;;;2.90;2.00;;;;;;;;;;5054794;28;20225;-90
2023/10/13 02:26:40;;;;;;;3.63;2.47;;;;;;;;;;5054923;28;20306;-89
2023/10/13 02:29:12;;;;;;;2.20;2.00;;;;;;;;;;5055237;28;20201;-90
2023/10/13 02:31:41;;;;;;;3.10;2.83;;;;;;;;;;5054895;28;20209;-90
2023/10/13 02:34:11;;;;;;;4.68;2.55;;;;;;;;;;5055231;28;20223;-90
2023/10/13 02:36:46;;;;;;;2.92;2.40;;;;;;;;;;5055461;28;20695;-90
2023/10/13 02:39:15;;;;;;;2.90;2.58;;;;;;;;;;5054132;28;20249;-90
2023/10/13 02:41:47;;;;;;;3.42;2.65;;;;;;;;;;5053220;28;20679;-89
2023/10/13 02:44:27;;;;;;;3.00;2.72;;;;;;;;;;5053456;28;20252;-90
2023/10/13 02:46:55;;;;;;;2.67;2.47;;;;;;;;;;5053345;28;20282;-90
2023/10/13 02:49:25;;;;;;;2.53;2.33;;;;;;;;;;5053133;28;20285;-90
2023/10/13 02:51:52;;;;;;;2.53;2.33;;;;;;;;;;5059739;28;20200;-90
2023/10/13 02:54:20;;;;;;;4.97;2.92;;;;;;;;;;5058960;28;20212;-89
2023/10/13 02:56:50;;;;;;;5.43;2.92;;;;;;;;;;5054841;28;20380;-90
2023/10/13 02:59:33;;;;;;;5.05;3.00;;;;;;;;;;5073849;28;20201;-88
2023/10/13 03:02:00;;;;;;;3.30;3.00;;;;;;;;;;5077653;28;20205;-88
2023/10/13 03:04:28;;;;;;;4.47;3.03;;;;;;;;;;5077332;28;20265;-90
2023/10/13 03:06:59;;;;;;;3.65;3.35;;;;;;;;;;5060512;28;20193;-91
2023/10/13 03:09:27;;;;;;;4.50;4.10;;;;;;;;;;5054023;28;20202;-90
2023/10/13 03:11:54;;;;;;;7.15;3.75;;;;;;;;;;5054041;28;20280;-90
2023/10/13 03:14:27;;;;;;;3.28;2.83;;;;;;;;;;5059543;28;20205;-90
2023/10/13 03:17:02;;;;;;;3.10;2.80;;;;;;;;;;5052912;28;20206;-90
2023/10/13 03:19:32;;;;;;;3.53;3.22;;;;;;;;;;5053099;28;20575;-91
2023/10/13 03:22:07;;;;;;;5.07;4.63;;;;;;;;;;5058973;28;20252;-90
2023/10/13 03:24:34;;;;;;;5.35;4.85;;;;;;;;;;5053490;28;20244;-90
2023/10/13 03:27:09;;;;;;;4.38;3.97;;;;;;;;;;5053419;28;20269;-90
2023/10/13 03:29:42;;;;;;;5.13;4.13;;;;;;;;;;5053251;28;20231;-90
2023/10/13 03:32:12;;;;;;;3.92;2.97;;;;;;;;;;5053498;28;20209;-89
2023/10/13 03:34:53;;;;;;;3.92;3.53;;;;;;;;;;5055585;28;20212;-88
2023/10/13 03:37:37;;;;;;;5.55;4.47;;;;;;;;;;5058317;28;20211;-89
2023/10/13 03:40:15;;;;;;;5.88;4.22;;;;;;;;;;5056872;28;20612;-89
2023/10/13 03:42:48;;;;;;;4.07;3.78;;;;;;;;;;5058572;28;20229;-89
2023/10/13 03:45:18;;;;;;;3.38;3.08;;;;;;;;;;5062890;28;20546;-90
2023/10/13 03:47:46;;;;;;;3.40;3.00;;;;;;;;;;5058515;28;20217;-89
2023/10/13 03:50:16;;;;;;;3.35;3.13;;;;;;;;;;5058855;28;20616;-89
2023/10/13 03:52:44;;;;;;;5.40;4.70;;;;;;;;;;5060584;28;20209;-90
2023/10/13 03:55:17;;;;;;;4.05;3.72;;;;;;;;;;5057509;28;20210;-90
2023/10/13 03:57:50;;;;;;;6.18;3.50;;;;;;;;;;5057919;28;20209;-90
2023/10/13 04:00:23;;;;;;;4.07;3.33;;;;;;;;;;5056994;28;20298;-89
2023/10/13 04:03:04;;;;;;;4.57;4.15;;;;;;;;;;5058651;28;20209;-89
2023/10/13 04:05:38;;;;;;;5.50;3.38;;;;;;;;;;5059654;28;20580;-90
2023/10/13 04:16:38;;;;;;;4.68;3.22;;;;;;;;;;5057059;28;20224;-88
2023/10/13 04:19:09;;;;;;;4.35;3.47;;;;;;;;;;5056255;28;20198;-90
2023/10/13 04:21:39;;;;;;;4.65;3.83;;;;;;;;;;5057458;28;20224;-91
2023/10/13 04:24:38;;;;;;;4.15;3.85;;;;;;;;;;5055649;28;20233;-89
2023/10/13 04:30:10;;;;;;;4.13;3.40;;;;;;;;;;5054405;28;20235;-90
2023/10/13 04:32:47;;;;;;;5.00;3.78;;;;;;;;;;5055923;28;20209;-89
2023/10/13 04:35:19;;;;;;;3.17;2.88;;;;;;;;;;5053080;28;20204;-88
2023/10/13 04:37:50;;;;;;;3.53;3.15;;;;;;;;;;5054424;28;20205;-89
2023/10/13 04:40:24;;;;;;;4.50;3.95;;;;;;;;;;5055850;28;20605;-89
2023/10/13 04:42:53;;;;;;;4.15;3.80;;;;;;;;;;5055553;28;20212;-89
2023/10/13 04:45:38;;;;;;;5.05;3.75;;;;;;;;;;5057752;28;20274;-90
2023/10/13 04:48:28;;;;;;;5.65;4.82;;;;;;;;;;5056775;28;20205;-90
2023/10/13 04:54:04;;;;;;;5.03;4.53;;;;;;;;;;5058517;28;20247;-89
2023/10/13 04:59:17;;;;;;;4.65;4.15;;;;;;;;;;5031354;28;20197;-89
2023/10/13 05:02:31;;;;;;;3.70;3.40;;;;;;;;;;5055633;28;20215;-88
2023/10/13 05:52:07;;;;;;;4.47;3.50;;;;;;;;;;5063379;28;20199;-90
2023/10/13 06:30:22;;;;;;;3.33;3.03;;;;;;;;;;5053566;28;20721;-89
2023/10/13 06:32:50;;;;;;;5.53;3.50;;;;;;;;;;5053572;28;20672;-89
2023/10/13 06:35:23;;;;;;;4.60;3.72;;;;;;;;;;5053841;28;20206;-89
2023/10/13 06:37:53;;;;;;;4.13;3.58;;;;;;;;;;5053636;28;20197;-89
2023/10/13 06:40:25;;;;;;;9.57;3.55;;;;;;;;;;5053155;28;20722;-90
2023/10/13 06:43:11;;;;;;;4.43;3.92;;;;;;;;;;5053512;28;20201;-90
2023/10/13 06:45:38;;;;;;;4.00;3.22;;;;;;;;;;5053718;28;20224;-89
2023/10/13 06:48:11;;;;;;;3.72;3.35;;;;;;;;;;5053666;28;20257;-90
2023/10/13 06:50:41;;;;;;;4.40;2.70;;;;;;;;;;5057433;28;20312;-90
2023/10/13 06:53:12;;;;;;;4.13;3.40;;;;;;;;;;5053274;28;20240;-89
2023/10/13 06:55:40;;;;;;;3.17;2.88;;;;;;;;;;5053422;28;20212;-89
2023/10/13 06:58:13;;;;;;;4.13;3.28;;;;;;;;;;5054033;28;20208;-92
2023/10/13 07:00:41;;;;;;;4.65;3.10;;;;;;;;;;5065180;28;20245;-89
2023/10/13 07:03:17;;;;;;;4.78;3.20;;;;;;;;;;5053705;28;20213;-89
2023/10/13 07:05:47;;;;;;;4.05;3.47;;;;;;;;;;5054067;28;20308;-89
2023/10/13 07:08:19;;;;;;;2.88;2.53;;;;;;;;;;5053722;28;20197;-89
2023/10/13 07:11:01;;;;;;;2.80;2.60;;;;;;;;;;5053463;28;20757;-89
2023/10/13 07:13:30;;;;;;;3.90;3.53;;;;;;;;;;5053430;28;20197;-89
2023/10/13 07:16:05;;;;;;;3.45;3.15;;;;;;;;;;5052712;28;20635;-89
2023/10/13 07:18:36;;;;;;;3.08;2.88;;;;;;;;;;5053515;28;20205;-90
2023/10/13 07:21:09;;;;;;;3.17;2.63;;;;;;;;;;5063582;28;20274;-91
2023/10/13 07:23:38;;;;;;;3.53;3.22;;;;;;;;;;5075779;28;20204;-91
2023/10/13 07:26:08;;;;;;;3.45;3.00;;;;;;;;;;5073449;28;20225;-90
2023/10/13 07:28:43;;;;;;;3.83;2.90;;;;;;;;;;5072629;28;20212;-90
2023/10/13 07:34:32;;;;;;;2.95;2.70;;;;;;;;;;4929478;28;20286;-89
2023/10/13 07:37:00;;;;;;;6.68;4.03;;;;;;;;;;4958991;28;20208;-89
2023/10/13 07:39:33;;;;;;;3.08;2.78;;;;;;;;;;4954421;28;20201;-90
2023/10/13 07:42:05;;;;;;;4.90;4.43;;;;;;;;;;4954664;29;20259;-90
2023/10/13 07:44:36;;;;;;;3.60;2.60;;;;;;;;;;4955348;29;20689;-90
2023/10/13 07:47:07;;;;;;;4.72;3.88;;;;;;;;;;4953864;29;20193;-89
2023/10/13 07:49:39;;;;;;;5.05;4.00;;;;;;;;;;4954013;28;20206;-89
2023/10/13 07:52:19;;;;;;;3.65;3.28;;;;;;;;;;4953828;28;20612;-89
2023/10/13 07:54:55;;;;;;;3.33;3.13;;;;;;;;;;4954362;29;20252;-89
2023/10/13 07:57:29;;;;;;;6.53;3.30;;;;;;;;;;4954749;28;20696;-90
2023/10/13 08:00:10;;;;;;;5.00;4.13;;;;;;;;;;4954283;29;20248;-89
2023/10/13 08:05:29;;;;;;;6.35;3.83;;;;;;;;;;4952146;28;20229;-90
2023/10/13 08:07:56;;;;;;;3.60;3.30;;;;;;;;;;4954439;28;20292;-89
2023/10/13 08:10:29;;;;;;;3.28;2.97;;;;;;;;;;4954776;29;20201;-89
2023/10/13 08:12:58;;;;;;;2.97;2.67;;;;;;;;;;4954077;29;20236;-88
2023/10/13 08:15:33;;;;;;;2.58;2.38;;;;;;;;;;4954600;28;20208;-89
2023/10/13 08:18:04;;;;;;;3.70;3.40;;;;;;;;;;4965393;29;20189;-89
2023/10/13 08:20:38;;;;;;;4.00;3.55;;;;;;;;;;4979405;28;20224;-88
2023/10/13 08:23:14;;;;;;;2.78;2.55;;;;;;;;;;4981332;28;20276;-88
2023/10/13 08:28:53;;;;;;;4.53;3.47;;;;;;;;;;4948367;29;20233;-89
2023/10/13 08:31:22;;;;;;;3.30;2.83;;;;;;;;;;4958580;29;20228;-90
2023/10/13 08:33:50;;;;;;;7.22;3.20;;;;;;;;;;4957864;28;20205;-88
2023/10/13 08:36:29;;;;;;;3.35;3.05;;;;;;;;;;4957991;28;20254;-89
2023/10/13 08:38:57;;;;;;;4.18;3.63;;;;;;;;;;4958067;28;20256;-90
2023/10/13 08:41:31;;;;;;;3.67;3.17;;;;;;;;;;4961149;28;20205;-88
2023/10/13 08:44:09;;;;;;;5.38;4.43;;;;;;;;;;4958738;28;20209;-90
2023/10/13 08:47:03;;;;;;;6.57;4.05;;;;;;;;;;4959159;29;20256;-89
2023/10/13 08:49:32;;;;;;;4.50;3.33;;;;;;;;;;4961088;29;20205;-90
2023/10/13 08:52:06;;;;;;;4.32;3.75;;;;;;;;;;4964714;28;20311;-90
2023/10/13 08:54:39;;;;;;;4.45;2.80;;;;;;;;;;4976482;28;20211;-89
2023/10/13 09:00:26;;;;;;;6.55;4.20;;;;;;;;;;4966854;28;20200;-89
2023/10/13 09:02:59;;;;;;;6.95;3.85;;;;;;;;;;4976455;28;20230;-88
2023/10/13 09:05:42;;;;;;;5.22;3.33;;;;;;;;;;4974296;28;20211;-89
2023/10/13 09:08:09;;;;;;;4.50;4.00;;;;;;;;;;4957143;28;20215;-88
2023/10/13 09:10:49;;;;;;;7.13;4.80;;;;;;;;;;4955257;29;20197;-90
2023/10/13 09:13:20;;;;;;;4.63;3.55;;;;;;;;;;4958208;28;20224;-89
2023/10/13 09:16:02;;;;;;;4.30;3.60;;;;;;;;;;4957779;29;20213;-90
2023/10/13 09:18:46;;;;;;;4.13;3.72;;;;;;;;;;4957299;29;20224;-89
2023/10/13 09:21:43;;;;;;;5.10;3.50;;;;;;;;;;4957281;29;20209;-89
2023/10/13 09:24:21;;;;;;;5.65;3.47;;;;;;;;;;4956806;28;20200;-89
2023/10/13 09:26:53;;;;;;;3.97;3.17;;;;;;;;;;4957112;28;20233;-88
2023/10/13 09:29:20;;;;;;;4.65;4.25;;;;;;;;;;4959676;29;20217;-88
2023/10/13 09:32:02;;;;;;;7.05;3.70;;;;;;;;;;4956340;28;20659;-90
2023/10/13 09:34:33;;;;;;;8.57;3.17;;;;;;;;;;4956926;29;20733;-90
2023/10/13 09:37:03;;;;;;;4.85;4.05;;;;;;;;;;4956280;28;20231;-89
2023/10/13 09:39:30;;;;;;;2.85;2.63;;;;;;;;;;4956616;28;20292;-89
2023/10/13 09:41:59;;;;;;;8.77;3.50;;;;;;;;;;4956251;29;20594;-90
2023/10/13 09:44:30;;;;;;;5.05;2.83;;;;;;;;;;4956136;29;20201;-89
2023/10/13 09:47:07;;;;;;;3.40;3.08;;;;;;;;;;4956268;29;20231;-89
2023/10/13 09:49:45;;;;;;;6.22;3.45;;;;;;;;;;4957612;28;20207;-90
2023/10/13 09:52:19;;;;;;;11.43;4.28;;;;;;;;;;4956163;28;20349;-90
2023/10/13 09:54:59;;;;;;;12.63;4.30;;;;;;;;;;4956547;29;20201;-90
2023/10/13 09:57:35;;;;;;;5.03;3.50;;;;;;;;;;4956518;28;20658;-90
2023/10/13 10:00:34;;;;;;;4.68;3.95;;;;;;;;;;4955932;29;20201;-89
2023/10/13 10:03:14;;;;;;;8.85;4.97;;;;;;;;;;4957071;29;20323;-90
2023/10/13 10:05:49;;;;;;;5.40;4.07;;;;;;;;;;4956737;29;20580;-90
2023/10/13 10:08:33;;;;;;;8.10;4.00;;;;;;;;;;4956039;28;20231;-89
2023/10/13 10:11:55;;;;;;;6.82;4.20;;;;;;;;;;4963836;29;20181;-90
2023/10/13 10:14:39;;;;;;;7.07;3.53;;;;;;;;;;4955775;29;20205;-89
2023/10/13 10:17:07;;;;;;;5.10;3.38;;;;;;;;;;4955960;29;20288;-89
2023/10/13 10:19:46;;;;;;;4.40;3.33;;;;;;;;;;4955597;28;20261;-90
2023/10/13 10:22:27;;;;;;;5.78;3.92;;;;;;;;;;4964382;29;20213;-89
2023/10/13 10:24:59;;;;;;;3.88;3.47;;;;;;;;;;4955356;29;20582;-89
2023/10/13 10:27:29;;;;;;;4.28;3.53;;;;;;;;;;4956516;29;20520;-90
2023/10/13 10:29:56;;;;;;;4.70;2.92;;;;;;;;;;4956492;29;20213;-90
2023/10/13 10:32:35;;;;;;;5.82;3.45;;;;;;;;;;4963377;29;20320;-89
2023/10/13 10:35:14;;;;;;;8.43;4.68;;;;;;;;;;4955637;29;20312;-91
2023/10/13 10:37:47;;;;;;;6.13;3.60;;;;;;;;;;4955323;29;20212;-90
2023/10/13 10:40:33;;;;;;;7.53;3.20;;;;;;;;;;4955513;29;20208;-91
2023/10/13 10:43:02;;;;;;;3.60;3.10;;;;;;;;;;4955011;28;20300;-89
2023/10/13 10:45:33;;;;;;;4.88;3.20;;;;;;;;;;4954908;29;20205;-90
2023/10/13 10:48:16;;;;;;;3.50;3.20;;;;;;;;;;4955226;29;20247;-90
2023/10/13 10:50:44;;;;;;;6.03;3.17;;;;;;;;;;4954972;29;20193;-91
2023/10/13 10:53:13;;;;;;;6.07;3.35;;;;;;;;;;4954864;28;20255;-90
2023/10/13 10:55:41;;;;;;;5.03;3.65;;;;;;;;;;4954766;29;20657;-89
2023/10/13 10:58:28;;;;;;;5.55;3.80;;;;;;;;;;4954385;28;20682;-90
2023/10/13 11:01:10;;;;;;;6.40;4.03;;;;;;;;;;4955020;28;20256;-90
2023/10/13 11:03:41;;;;;;;4.35;3.72;;;;;;;;;;4954224;29;20233;-90
2023/10/13 11:06:18;;;;;;;3.53;3.08;;;;;;;;;;4954914;29;20208;-90
2023/10/13 11:08:51;;;;;;;7.90;4.18;;;;;;;;;;4954139;29;20255;-90
2023/10/13 11:11:35;;;;;;;4.57;3.50;;;;;;;;;;4954643;29;20617;-91
2023/10/13 11:14:22;;;;;;;7.25;3.53;;;;;;;;;;4954488;29;20681;-90
2023/10/13 11:16:53;;;;;;;3.85;2.80;;;;;;;;;;4954906;29;20225;-89
2023/10/13 11:19:25;;;;;;;5.85;4.13;;;;;;;;;;4954818;29;20236;-90
2023/10/13 11:21:55;;;;;;;7.38;4.72;;;;;;;;;;4954631;29;20232;-90
2023/10/13 11:24:24;;;;;;;3.78;3.38;;;;;;;;;;4954119;29;20204;-90
2023/10/13 11:26:54;;;;;;;7.10;3.70;;;;;;;;;;4948483;29;20261;-91
2023/10/13 11:29:33;;;;;;;3.30;3.00;;;;;;;;;;4935180;29;20205;-90
2023/10/13 11:32:02;;;;;;;5.80;3.90;;;;;;;;;;4935008;29;20248;-90
2023/10/13 11:34:39;;;;;;;7.75;3.67;;;;;;;;;;4935293;29;20202;-89
2023/10/13 11:39:51;;;;;;;3.85;3.40;;;;;;;;;;4934991;29;20237;-90
2023/10/13 11:42:20;;;;;;;3.13;2.88;;;;;;;;;;4935019;29;20308;-90
2023/10/13 11:45:01;;;;;;;5.93;4.05;;;;;;;;;;4935238;29;20205;-90
2023/10/13 11:47:47;;;;;;;4.50;2.92;;;;;;;;;;4935168;29;20225;-90
2023/10/13 11:50:27;;;;;;;4.25;3.55;;;;;;;;;;4935218;29;20208;-89
2023/10/13 11:52:54;;;;;;;5.55;4.20;;;;;;;;;;4936462;29;20316;-90
2023/10/13 11:55:24;;;;;;;3.95;3.65;;;;;;;;;;4937375;29;20205;-90
2023/10/13 11:57:51;;;;;;;5.60;4.13;;;;;;;;;;4957437;28;20666;-90
2023/10/13 12:00:44;;;;;;;4.13;3.70;;;;;;;;;;4958513;29;20213;-91
2023/10/13 12:06:17;;;;;;;4.57;3.92;;;;;;;;;;4958421;29;20288;-90
2023/10/13 12:08:49;;;;;;;4.50;3.40;;;;;;;;;;4957242;29;20709;-90
2023/10/13 12:11:38;;;;;;;4.13;3.13;;;;;;;;;;4957839;29;20197;-91
2023/10/13 12:14:16;;;;;;;6.05;3.80;;;;;;;;;;4958695;29;20213;-91
2023/10/13 12:16:48;;;;;;;5.68;4.53;;;;;;;;;;4959101;28;20205;-91
2023/10/13 12:19:17;;;;;;;6.82;4.82;;;;;;;;;;4957667;29;20212;-90
2023/10/13 12:21:47;;;;;;;3.75;3.20;;;;;;;;;;4957124;29;20260;-90
2023/10/13 12:24:22;;;;;;;5.28;3.83;;;;;;;;;;4967125;28;20209;-90
2023/10/13 12:26:55;;;;;;;3.45;3.15;;;;;;;;;;4957435;29;20212;-91
2023/10/13 12:29:28;;;;;;;5.10;3.95;;;;;;;;;;4958388;29;20228;-90
2023/10/13 12:32:07;;;;;;;6.85;4.22;;;;;;;;;;4966047;29;20217;-90
2023/10/13 12:37:49;;;;;;;6.63;4.22;;;;;;;;;;4922552;28;20678;-90
2023/10/13 12:49:04;;;;;;;3.40;3.13;;;;;;;;;;4965255;29;20216;-90
2023/10/13 12:51:51;;;;;;;7.00;5.70;;;;;;;;;;4957487;29;20216;-90
2023/10/13 12:54:23;;;;;;;7.00;4.47;;;;;;;;;;4957447;28;20591;-91
2023/10/13 12:56:56;;;;;;;4.45;4.07;;;;;;;;;;4957275;29;20211;-90
2023/10/13 12:59:27;;;;;;;7.22;4.50;;;;;;;;;;4960996;29;20209;-91
2023/10/13 13:01:55;;;;;;;4.00;3.60;;;;;;;;;;4980882;28;20217;-89
2023/10/13 13:04:24;;;;;;;4.15;3.67;;;;;;;;;;4980495;28;20343;-88
2023/10/13 13:06:53;;;;;;;6.40;4.50;;;;;;;;;;4979690;28;20206;-89
2023/10/13 13:09:25;;;;;;;5.13;4.50;;;;;;;;;;4966041;29;20217;-89
2023/10/13 13:11:57;;;;;;;5.32;4.47;;;;;;;;;;4960330;29;20229;-89
2023/10/13 13:14:28;;;;;;;5.82;4.22;;;;;;;;;;4958753;29;20287;-90
2023/10/13 13:17:04;;;;;;;6.82;4.50;;;;;;;;;;4957483;29;20201;-90
2023/10/13 13:19:35;;;;;;;4.60;3.70;;;;;;;;;;4957056;29;20334;-89
2023/10/13 13:22:04;;;;;;;5.28;4.75;;;;;;;;;;4956797;29;20256;-90
2023/10/13 13:24:32;;;;;;;4.40;4.00;;;;;;;;;;4956689;29;20204;-89
2023/10/13 13:27:02;;;;;;;4.25;3.53;;;;;;;;;;4951033;29;20620;-89
2023/10/13 13:29:32;;;;;;;4.28;3.92;;;;;;;;;;4948993;29;20232;-90
2023/10/13 13:32:00;;;;;;;5.22;4.20;;;;;;;;;;4957697;29;20288;-90
2023/10/13 13:34:28;;;;;;;6.85;4.63;;;;;;;;;;4959249;29;20288;-90
2023/10/13 13:36:55;;;;;;;5.70;4.25;;;;;;;;;;4958424;29;20300;-90
2023/10/13 13:39:30;;;;;;;5.97;4.07;;;;;;;;;;4959568;29;20228;-91
2023/10/13 13:41:57;;;;;;;5.45;4.95;;;;;;;;;;4958860;29;20228;-91
2023/10/13 13:44:34;;;;;;;4.32;3.97;;;;;;;;;;4961812;29;20205;-91
2023/10/13 13:47:05;;;;;;;4.70;4.20;;;;;;;;;;4958877;28;20204;-91
2023/10/13 13:49:40;;;;;;;4.97;3.95;;;;;;;;;;4964700;28;20231;-91
2023/10/13 13:52:08;;;;;;;6.40;4.63;;;;;;;;;;4965568;28;20229;-91
2023/10/13 13:54:35;;;;;;;5.03;4.13;;;;;;;;;;4961752;29;20233;-92
2023/10/13 13:57:05;;;;;;;3.85;3.55;;;;;;;;;;4958737;28;20221;-90
2023/10/13 13:59:33;;;;;;;4.82;3.83;;;;;;;;;;4960507;29;20205;-91
2023/10/13 14:02:19;;;;;;;4.82;4.13;;;;;;;;;;4963324;29;20225;-91
2023/10/13 14:04:50;;;;;;;5.82;4.53;;;;;;;;;;4958101;29;20284;-91
2023/10/13 14:07:19;;;;;;;4.32;3.92;;;;;;;;;;4962333;28;20201;-90
2023/10/13 14:09:51;;;;;;;14.25;4.88;;;;;;;;;;4975404;28;20227;-91
2023/10/13 14:12:36;;;;;;;6.82;4.25;;;;;;;;;;4974970;28;20231;-90
2023/10/13 14:15:03;;;;;;;5.60;4.45;;;;;;;;;;4972292;28;20193;-90
2023/10/13 14:17:35;;;;;;;4.28;3.83;;;;;;;;;;4980698;28;20264;-90
2023/10/13 14:20:09;;;;;;;7.25;4.38;;;;;;;;;;4970692;28;20220;-90
2023/10/13 14:22:37;;;;;;;5.55;4.65;;;;;;;;;;4973020;29;20300;-91
2023/10/13 14:25:08;;;;;;;6.00;4.95;;;;;;;;;;4960600;29;20213;-91
2023/10/13 14:27:36;;;;;;;6.10;3.97;;;;;;;;;;4957015;29;20204;-90
2023/10/13 14:30:04;;;;;;;5.25;4.47;;;;;;;;;;4956321;29;20310;-90
2023/10/13 14:32:40;;;;;;;6.30;4.35;;;;;;;;;;4955963;29;20745;-92
2023/10/13 14:35:14;;;;;;;6.03;4.53;;;;;;;;;;4955638;28;20247;-90
2023/10/13 14:37:42;;;;;;;6.25;5.13;;;;;;;;;;4955672;29;20571;-91
2023/10/13 14:40:12;;;;;;;5.22;4.50;;;;;;;;;;4955102;29;20296;-90
2023/10/13 14:42:41;;;;;;;4.65;4.25;;;;;;;;;;4954525;28;20323;-90
2023/10/13 14:45:13;;;;;;;4.75;4.32;;;;;;;;;;4955268;29;20205;-90
2023/10/13 14:47:42;;;;;;;5.20;4.80;;;;;;;;;;4955051;29;20703;-91
2023/10/13 14:50:19;;;;;;;5.35;4.22;;;;;;;;;;4954877;28;20320;-91
2023/10/13 14:52:48;;;;;;;5.70;4.00;;;;;;;;;;4935185;29;20225;-91
2023/10/13 14:55:21;;;;;;;8.88;4.90;;;;;;;;;;4935679;29;20240;-91
2023/10/13 14:57:49;;;;;;;5.75;4.45;;;;;;;;;;4935681;29;20201;-90
2023/10/13 15:00:24;;;;;;;4.95;4.15;;;;;;;;;;4935901;29;20209;-90
2023/10/13 15:02:54;;;;;;;5.40;4.90;;;;;;;;;;4935285;29;20217;-90
2023/10/13 15:05:21;;;;;;;4.75;4.35;;;;;;;;;;4935089;29;20722;-90
2023/10/13 15:07:49;;;;;;;5.65;5.15;;;;;;;;;;4935277;29;20228;-91
2023/10/13 15:10:17;;;;;;;4.80;4.32;;;;;;;;;;4935519;29;20313;-92
2023/10/13 15:12:45;;;;;;;5.60;5.00;;;;;;;;;;4935108;29;20226;-92
2023/10/13 15:15:18;;;;;;;4.68;4.07;;;;;;;;;;4935082;29;20194;-90
2023/10/13 15:17:46;;;;;;;5.90;4.80;;;;;;;;;;4937086;29;20209;-89
2023/10/13 15:20:18;;;;;;;5.68;4.50;;;;;;;;;;4953974;28;20236;-90
2023/10/13 15:22:47;;;;;;;4.35;3.95;;;;;;;;;;4953991;28;20316;-89
2023/10/13 15:25:20;;;;;;;6.00;4.00;;;;;;;;;;4954855;28;20212;-90
2023/10/13 15:27:55;;;;;;;4.97;4.53;;;;;;;;;;4961903;28;20208;-90
2023/10/13 15:30:26;;;;;;;6.22;4.72;;;;;;;;;;4956259;28;20227;-90
2023/10/13 15:32:57;;;;;;;3.97;3.67;;;;;;;;;;4958046;28;20648;-90
2023/10/13 15:35:28;;;;;;;4.78;4.15;;;;;;;;;;4957945;29;20216;-89
2023/10/13 15:37:56;;;;;;;5.28;4.28;;;;;;;;;;4958017;29;20303;-91
2023/10/13 15:40:27;;;;;;;4.25;3.70;;;;;;;;;;4957729;28;20200;-89
2023/10/13 15:42:59;;;;;;;7.25;5.43;;;;;;;;;;4957540;29;20233;-89
2023/10/13 15:45:32;;;;;;;5.72;4.72;;;;;;;;;;4958021;29;20217;-89
2023/10/13 15:48:00;;;;;;;5.25;3.85;;;;;;;;;;4957642;29;20706;-88
2023/10/13 15:50:29;;;;;;;4.90;3.78;;;;;;;;;;4957127;28;20225;-88
2023/10/13 15:52:56;;;;;;;3.78;3.38;;;;;;;;;;4957450;29;20615;-88
2023/10/13 15:55:26;;;;;;;4.90;3.72;;;;;;;;;;4957661;29;20211;-89
2023/10/13 15:57:53;;;;;;;4.38;3.97;;;;;;;;;;4957564;29;20662;-89
2023/10/13 16:00:25;;;;;;;6.20;3.28;;;;;;;;;;4957364;29;20462;-89
2023/10/13 16:02:54;;;;;;;5.72;4.13;;;;;;;;;;4957351;29;20259;-89
2023/10/13 16:05:23;;;;;;;5.93;4.68;;;;;;;;;;4957392;29;20216;-88
2023/10/13 16:07:53;;;;;;;3.95;3.65;;;;;;;;;;4957269;28;20701;-89
2023/10/13 16:10:23;;;;;;;4.40;3.80;;;;;;;;;;4957259;29;20241;-90
2023/10/13 16:12:51;;;;;;;5.03;3.95;;;;;;;;;;4957029;29;20316;-89
2023/10/13 16:15:21;;;;;;;5.18;4.22;;;;;;;;;;4957308;29;20205;-90
2023/10/13 16:17:48;;;;;;;3.65;3.35;;;;;;;;;;4957438;29;20221;-89
2023/10/13 16:20:20;;;;;;;3.28;3.03;;;;;;;;;;4941004;28;20297;-89
2023/10/13 16:22:50;;;;;;;4.07;3.65;;;;;;;;;;4956927;29;20221;-90
2023/10/13 16:25:21;;;;;;;4.28;3.88;;;;;;;;;;4957306;28;20209;-89
2023/10/13 16:27:49;;;;;;;4.47;3.30;;;;;;;;;;4957236;29;20256;-90
2023/10/13 16:30:19;;;;;;;4.25;3.78;;;;;;;;;;4956812;29;20773;-90
2023/10/13 16:32:47;;;;;;;5.40;3.78;;;;;;;;;;4956606;29;20474;-90
2023/10/13 16:35:17;;;;;;;4.13;3.65;;;;;;;;;;4956795;29;20209;-90
2023/10/13 16:37:50;;;;;;;5.70;3.95;;;;;;;;;;4956838;29;20220;-90
2023/10/13 16:40:20;;;;;;;4.78;3.85;;;;;;;;;;4956900;29;20208;-90
2023/10/13 16:42:49;;;;;;;3.90;3.35;;;;;;;;;;4958992;28;20263;-90
2023/10/13 16:45:20;;;;;;;6.55;3.95;;;;;;;;;;4958847;29;20219;-90
2023/10/13 16:47:48;;;;;;;3.78;3.47;;;;;;;;;;4956561;29;20256;-89
2023/10/13 16:50:17;;;;;;;5.68;3.70;;;;;;;;;;4956352;28;20296;-89
2023/10/13 16:52:47;;;;;;;3.97;3.67;;;;;;;;;;4956722;29;20601;-89
2023/10/13 16:55:17;;;;;;;4.60;3.63;;;;;;;;;;4957214;29;20205;-90
2023/10/13 16:57:49;;;;;;;3.50;2.97;;;;;;;;;;4959477;29;20646;-90
2023/10/13 17:00:18;;;;;;;5.82;3.80;;;;;;;;;;4957644;28;20672;-89
2023/10/13 17:02:46;;;;;;;4.97;4.03;;;;;;;;;;4956035;29;20729;-90
2023/10/13 17:05:17;;;;;;;5.00;3.67;;;;;;;;;;4964563;29;20209;-89
2023/10/13 17:07:46;;;;;;;4.03;3.28;;;;;;;;;;4956814;29;20201;-89
2023/10/13 17:10:15;;;;;;;4.10;3.78;;;;;;;;;;4957721;28;20602;-89
2023/10/13 17:12:42;;;;;;;3.72;3.42;;;;;;;;;;4955980;29;20252;-90
2023/10/13 17:15:19;;;;;;;6.20;3.13;;;;;;;;;;4956171;29;20280;-89
2023/10/13 17:17:47;;;;;;;4.80;2.97;;;;;;;;;;4956203;29;20205;-90
2023/10/13 17:20:17;;;;;;;3.38;3.08;;;;;;;;;;4955878;28;20662;-90
2023/10/13 17:22:45;;;;;;;5.65;3.70;;;;;;;;;;4964528;29;20275;-90
2023/10/13 17:25:12;;;;;;;3.67;3.30;;;;;;;;;;4956099;29;20205;-90